Time;durP1;ratioP1;P1;durP2;ratioP2;P2;SDS_P1;SDS_P2;PMS_P1;PMS_P2;Temp;Humidity;BMP_temperature;BMP_pressure;BME280_temperature;BME280_humidity;BME280_pressure;Samples;Min_cycle;Max_cycle;Signal;HPM_P1;HPM_P2
2023/06/17 00:00:08;;;;;;;11.68;7.10;;;;;;;;;;5093162;28;20106;-67
2023/06/17 00:02:34;;;;;;;6.40;4.53;;;;;;;;;;5092626;28;20043;-67
2023/06/17 00:05:03;;;;;;;14.25;6.15;;;;;;;;;;5092782;28;20024;-67
2023/06/17 00:07:29;;;;;;;8.30;5.68;;;;;;;;;;5093075;28;20036;-67
2023/06/17 00:09:54;;;;;;;8.80;5.13;;;;;;;;;;5074693;28;20504;-67
2023/06/17 00:12:21;;;;;;;13.30;7.60;;;;;;;;;;5092691;28;20026;-67
2023/06/17 00:14:47;;;;;;;13.48;7.60;;;;;;;;;;5092668;28;20020;-67
2023/06/17 00:17:12;;;;;;;9.00;5.78;;;;;;;;;;5077122;28;20492;-67
2023/06/17 00:19:38;;;;;;;13.43;7.80;;;;;;;;;;5096450;28;20441;-67
2023/06/17 00:22:04;;;;;;;12.27;7.38;;;;;;;;;;5078313;28;20030;-67
2023/06/17 00:24:29;;;;;;;10.25;6.40;;;;;;;;;;5096614;28;20107;-67
2023/06/17 00:26:55;;;;;;;10.02;6.03;;;;;;;;;;5096325;28;20028;-67
2023/06/17 00:29:20;;;;;;;6.88;5.00;;;;;;;;;;5096622;28;20036;-67
2023/06/17 00:31:45;;;;;;;8.73;6.03;;;;;;;;;;5096216;28;20016;-67
2023/06/17 00:34:11;;;;;;;8.18;6.32;;;;;;;;;;5096208;28;20032;-67
2023/06/17 00:36:36;;;;;;;9.73;6.55;;;;;;;;;;5078078;28;20031;-67
2023/06/17 00:39:01;;;;;;;10.02;6.47;;;;;;;;;;5096126;28;20025;-67
2023/06/17 00:41:27;;;;;;;13.45;8.57;;;;;;;;;;5095871;28;20114;-67
2023/06/17 00:43:52;;;;;;;11.30;6.40;;;;;;;;;;5096298;28;20023;-67
2023/06/17 00:46:37;;;;;;;13.93;7.75;;;;;;;;;;5077869;28;20045;-67
2023/06/17 00:49:03;;;;;;;14.98;6.93;;;;;;;;;;5096466;28;20062;-67
2023/06/17 00:51:31;;;;;;;16.45;9.40;;;;;;;;;;5077525;28;20024;-67
2023/06/17 00:53:57;;;;;;;15.45;7.53;;;;;;;;;;5095863;28;20020;-67
2023/06/17 00:56:25;;;;;;;20.27;8.38;;;;;;;;;;5095830;28;20024;-67
2023/06/17 00:58:50;;;;;;;25.02;8.82;;;;;;;;;;5095739;28;20052;-67
2023/06/17 01:01:15;;;;;;;14.35;8.15;;;;;;;;;;5095479;28;20051;-67
2023/06/17 01:03:41;;;;;;;16.50;8.32;;;;;;;;;;5096139;28;20032;-67
2023/06/17 01:06:12;;;;;;;16.40;8.48;;;;;;;;;;5095729;28;20063;-67
2023/06/17 01:09:02;;;;;;;15.95;7.28;;;;;;;;;;5078025;28;20076;-67
2023/06/17 01:11:29;;;;;;;14.93;7.68;;;;;;;;;;5077790;28;20016;-67
2023/06/17 01:13:56;;;;;;;10.80;7.10;;;;;;;;;;5077447;28;20032;-67
2023/06/17 01:16:22;;;;;;;10.85;7.45;;;;;;;;;;5095619;28;20019;-67
2023/06/17 01:18:54;;;;;;;11.68;7.90;;;;;;;;;;5095387;28;20035;-67
2023/06/17 01:21:22;;;;;;;11.07;7.40;;;;;;;;;;5095099;28;20059;-67
2023/06/17 01:23:49;;;;;;;11.60;7.50;;;;;;;;;;5095374;28;20028;-67
2023/06/17 01:26:15;;;;;;;9.38;6.53;;;;;;;;;;5095596;28;20024;-67
2023/06/17 01:28:44;;;;;;;8.20;5.57;;;;;;;;;;5094344;28;20027;-67
2023/06/17 01:31:12;;;;;;;9.55;6.30;;;;;;;;;;5077981;28;20047;-67
2023/06/17 01:33:39;;;;;;;11.90;8.43;;;;;;;;;;5077442;28;20020;-67
2023/06/17 01:36:14;;;;;;;13.20;10.70;;;;;;;;;;5077605;28;20483;-67
2023/06/17 01:38:46;;;;;;;12.80;8.25;;;;;;;;;;5077313;28;20460;-67
2023/06/17 01:41:16;;;;;;;9.77;6.60;;;;;;;;;;5094844;28;20024;-67
2023/06/17 01:43:42;;;;;;;10.75;6.85;;;;;;;;;;5077409;28;20109;-67
2023/06/17 01:46:09;;;;;;;11.77;8.20;;;;;;;;;;5095355;28;20107;-67
2023/06/17 01:48:36;;;;;;;12.75;8.32;;;;;;;;;;5077117;28;20104;-68
2023/06/17 01:51:01;;;;;;;13.00;8.63;;;;;;;;;;5094774;28;20027;-67
2023/06/17 01:53:26;;;;;;;13.23;9.40;;;;;;;;;;5094543;28;20401;-67
2023/06/17 01:55:52;;;;;;;11.23;7.70;;;;;;;;;;5094896;28;20020;-67
2023/06/17 01:58:17;;;;;;;13.30;8.18;;;;;;;;;;5076578;28;20529;-67
2023/06/17 02:00:43;;;;;;;14.52;8.85;;;;;;;;;;5094737;28;20381;-67
2023/06/17 02:03:08;;;;;;;16.75;9.32;;;;;;;;;;5094425;28;20032;-67
2023/06/17 02:05:33;;;;;;;17.08;8.65;;;;;;;;;;5094526;28;20020;-67
2023/06/17 02:07:59;;;;;;;13.02;7.75;;;;;;;;;;5094504;28;20477;-67
2023/06/17 02:10:25;;;;;;;10.00;6.90;;;;;;;;;;5094374;28;20028;-67
2023/06/17 02:12:50;;;;;;;7.82;5.40;;;;;;;;;;5076121;28;20028;-67
2023/06/17 02:15:16;;;;;;;13.73;8.38;;;;;;;;;;5094277;28;20027;-67
2023/06/17 02:17:42;;;;;;;11.40;7.32;;;;;;;;;;5075970;28;20477;-67
2023/06/17 02:20:09;;;;;;;10.45;6.63;;;;;;;;;;5094171;28;20027;-67
2023/06/17 02:22:35;;;;;;;10.43;7.03;;;;;;;;;;5076024;28;20103;-67
2023/06/17 02:25:01;;;;;;;10.40;7.68;;;;;;;;;;5094041;28;20051;-67
2023/06/17 02:27:27;;;;;;;11.40;8.45;;;;;;;;;;5094347;28;20370;-67
2023/06/17 02:29:52;;;;;;;19.55;10.68;;;;;;;;;;5075919;28;20111;-67
2023/06/17 02:32:18;;;;;;;14.95;9.18;;;;;;;;;;5093948;28;20028;-67
2023/06/17 02:34:43;;;;;;;12.02;7.35;;;;;;;;;;5093871;28;20020;-67
2023/06/17 02:37:09;;;;;;;13.10;8.35;;;;;;;;;;5093875;28;20020;-67
2023/06/17 02:39:34;;;;;;;17.45;10.07;;;;;;;;;;5075616;28;20107;-67
2023/06/17 02:42:00;;;;;;;18.27;11.02;;;;;;;;;;5093649;28;20470;-67
2023/06/17 02:44:25;;;;;;;13.75;8.38;;;;;;;;;;5093845;28;20078;-68
2023/06/17 02:46:50;;;;;;;15.75;10.30;;;;;;;;;;5094270;28;20020;-67
2023/06/17 02:49:16;;;;;;;15.35;9.10;;;;;;;;;;5093665;28;20074;-67
2023/06/17 02:51:42;;;;;;;11.40;7.32;;;;;;;;;;5093651;28;20481;-67
2023/06/17 02:54:07;;;;;;;16.77;9.27;;;;;;;;;;5093809;28;20031;-67
2023/06/17 02:56:33;;;;;;;15.07;8.65;;;;;;;;;;5075529;28;20020;-67
2023/06/17 02:58:59;;;;;;;19.92;10.25;;;;;;;;;;5093545;28;20038;-67
2023/06/17 03:01:24;;;;;;;13.80;9.20;;;;;;;;;;5093410;28;20059;-67
2023/06/17 03:03:54;;;;;;;24.88;10.52;;;;;;;;;;5093561;28;20020;-67
2023/06/17 03:06:21;;;;;;;15.50;9.10;;;;;;;;;;5093563;28;20024;-67
2023/06/17 03:08:47;;;;;;;13.07;8.85;;;;;;;;;;5093643;28;20020;-67
2023/06/17 03:11:12;;;;;;;13.73;9.48;;;;;;;;;;5093712;28;20522;-67
2023/06/17 03:13:37;;;;;;;12.13;8.57;;;;;;;;;;5093580;28;20028;-67
2023/06/17 03:16:05;;;;;;;20.52;9.60;;;;;;;;;;5093294;28;20023;-67
2023/06/17 03:18:30;;;;;;;15.88;10.32;;;;;;;;;;5093588;28;20384;-67
2023/06/17 03:20:55;;;;;;;11.40;7.95;;;;;;;;;;5093208;28;20016;-67
2023/06/17 03:23:21;;;;;;;15.75;7.82;;;;;;;;;;5093259;28;20055;-67
2023/06/17 03:25:50;;;;;;;10.35;6.90;;;;;;;;;;5075184;28;20035;-67
2023/06/17 03:28:16;;;;;;;14.60;9.68;;;;;;;;;;5093554;28;20103;-67
2023/06/17 03:30:41;;;;;;;15.88;9.38;;;;;;;;;;5093071;28;20047;-67
2023/06/17 03:33:08;;;;;;;11.98;9.80;;;;;;;;;;5093174;28;20441;-67
2023/06/17 03:35:33;;;;;;;10.60;8.48;;;;;;;;;;5093123;28;20397;-67
2023/06/17 03:37:59;;;;;;;14.65;8.50;;;;;;;;;;5093154;28;20024;-67
2023/06/17 03:40:24;;;;;;;17.77;11.00;;;;;;;;;;5068510;28;20032;-67
2023/06/17 03:42:49;;;;;;;11.85;8.57;;;;;;;;;;5075465;28;20032;-67
2023/06/17 03:45:15;;;;;;;12.55;9.43;;;;;;;;;;5086910;28;20024;-67
2023/06/17 03:47:40;;;;;;;16.50;11.52;;;;;;;;;;5092498;28;20431;-67
2023/06/17 03:50:06;;;;;;;12.95;9.40;;;;;;;;;;5092881;28;20012;-67
2023/06/17 03:52:31;;;;;;;14.30;9.25;;;;;;;;;;5085063;28;20048;-67
2023/06/17 03:54:57;;;;;;;17.27;10.10;;;;;;;;;;5078328;28;20052;-67
2023/06/17 03:57:22;;;;;;;11.45;9.43;;;;;;;;;;5077100;28;20403;-67
2023/06/17 03:59:48;;;;;;;12.25;8.18;;;;;;;;;;5076639;28;20052;-68
2023/06/17 04:02:13;;;;;;;12.77;8.88;;;;;;;;;;5076734;28;20045;-67
2023/06/17 04:04:39;;;;;;;11.93;8.85;;;;;;;;;;5076966;28;20458;-67
2023/06/17 04:07:04;;;;;;;8.95;6.88;;;;;;;;;;5078931;28;20039;-67
2023/06/17 04:09:29;;;;;;;10.90;7.80;;;;;;;;;;5076575;28;20031;-68
2023/06/17 04:11:55;;;;;;;19.75;10.35;;;;;;;;;;5058491;28;20385;-67
2023/06/17 04:14:20;;;;;;;17.80;10.68;;;;;;;;;;5076739;28;20366;-67
2023/06/17 04:16:45;;;;;;;20.98;9.50;;;;;;;;;;5076293;28;20111;-67
2023/06/17 04:19:13;;;;;;;11.80;8.70;;;;;;;;;;5076946;28;20024;-67
2023/06/17 04:21:40;;;;;;;11.98;8.88;;;;;;;;;;5076081;28;20535;-67
2023/06/17 04:24:05;;;;;;;14.57;9.77;;;;;;;;;;5076358;28;20105;-67
2023/06/17 04:26:31;;;;;;;14.45;9.13;;;;;;;;;;5076292;28;20060;-68
2023/06/17 04:28:56;;;;;;;13.10;8.93;;;;;;;;;;5076257;28;20026;-67
2023/06/17 04:31:21;;;;;;;15.30;8.73;;;;;;;;;;5076210;28;20027;-67
2023/06/17 04:33:47;;;;;;;17.42;11.85;;;;;;;;;;5083648;28;20454;-67
2023/06/17 04:36:14;;;;;;;9.57;7.18;;;;;;;;;;5096617;28;20468;-68
2023/06/17 04:38:39;;;;;;;9.35;7.35;;;;;;;;;;5096012;28;20107;-67
2023/06/17 04:41:05;;;;;;;9.82;6.75;;;;;;;;;;5095999;28;20111;-67
2023/06/17 04:43:33;;;;;;;8.48;6.72;;;;;;;;;;5078263;28;20032;-67
2023/06/17 04:45:59;;;;;;;9.43;7.53;;;;;;;;;;5078362;28;20020;-67
2023/06/17 04:48:25;;;;;;;8.98;6.65;;;;;;;;;;5096259;28;20054;-67
2023/06/17 04:50:50;;;;;;;14.65;8.18;;;;;;;;;;5096305;28;20048;-68
2023/06/17 04:53:15;;;;;;;12.00;8.48;;;;;;;;;;5095913;28;20081;-67
2023/06/17 04:55:41;;;;;;;10.73;7.80;;;;;;;;;;5095131;28;20539;-67
2023/06/17 04:58:07;;;;;;;31.58;10.98;;;;;;;;;;5095957;28;20027;-67
2023/06/17 05:00:32;;;;;;;13.95;9.88;;;;;;;;;;5094098;28;20039;-67
2023/06/17 05:02:57;;;;;;;13.57;9.48;;;;;;;;;;5056606;28;20023;-67
2023/06/17 05:05:22;;;;;;;13.40;9.73;;;;;;;;;;5075571;28;20407;-67
2023/06/17 05:07:48;;;;;;;10.80;7.22;;;;;;;;;;5075885;28;20469;-68
2023/06/17 05:10:14;;;;;;;25.55;12.45;;;;;;;;;;5058682;28;20055;-67
2023/06/17 05:12:40;;;;;;;18.05;8.40;;;;;;;;;;5075565;28;20074;-67
2023/06/17 05:15:06;;;;;;;12.27;8.45;;;;;;;;;;5095420;28;20081;-67
2023/06/17 05:17:31;;;;;;;10.18;7.32;;;;;;;;;;5095939;28;20424;-68
2023/06/17 05:19:57;;;;;;;12.30;8.82;;;;;;;;;;5077700;28;20020;-68
2023/06/17 05:22:22;;;;;;;21.17;10.13;;;;;;;;;;5095496;28;20069;-67
2023/06/17 05:24:47;;;;;;;13.15;9.35;;;;;;;;;;5076607;28;20511;-67
2023/06/17 05:27:13;;;;;;;17.17;9.80;;;;;;;;;;5095426;28;20023;-67
2023/06/17 05:29:38;;;;;;;19.60;10.88;;;;;;;;;;5095274;28;20478;-68
2023/06/17 05:32:03;;;;;;;14.55;8.98;;;;;;;;;;5077235;28;20078;-68
2023/06/17 05:34:29;;;;;;;18.38;10.73;;;;;;;;;;5075528;28;20057;-67
2023/06/17 05:36:54;;;;;;;19.77;11.23;;;;;;;;;;5075101;28;20112;-67
2023/06/17 05:39:19;;;;;;;19.38;11.13;;;;;;;;;;5056700;28;20044;-67
2023/06/17 05:41:45;;;;;;;16.80;10.20;;;;;;;;;;5089658;28;20024;-68
2023/06/17 05:44:10;;;;;;;17.52;10.23;;;;;;;;;;5095248;28;20413;-68
2023/06/17 05:46:35;;;;;;;13.77;8.07;;;;;;;;;;5083612;28;20039;-67
2023/06/17 05:49:00;;;;;;;12.10;7.20;;;;;;;;;;5075357;28;20028;-67
2023/06/17 05:51:28;;;;;;;12.30;7.18;;;;;;;;;;5094551;28;20049;-67
2023/06/17 05:53:53;;;;;;;17.38;12.77;;;;;;;;;;5079042;28;20422;-67
2023/06/17 05:56:18;;;;;;;18.27;11.07;;;;;;;;;;5074422;28;20031;-67
2023/06/17 05:58:44;;;;;;;16.75;8.75;;;;;;;;;;5074186;28;20025;-67
2023/06/17 06:01:09;;;;;;;16.80;9.57;;;;;;;;;;5074229;28;20094;-67
2023/06/17 06:03:34;;;;;;;16.95;9.45;;;;;;;;;;5074285;28;20027;-67
2023/06/17 06:05:59;;;;;;;20.52;12.40;;;;;;;;;;5074200;28;20393;-67
2023/06/17 06:08:25;;;;;;;17.40;9.73;;;;;;;;;;5056489;28;20029;-68
2023/06/17 06:10:51;;;;;;;16.00;8.30;;;;;;;;;;5074240;28;20102;-67
2023/06/17 06:13:16;;;;;;;19.00;10.60;;;;;;;;;;5074100;28;20032;-68
2023/06/17 06:15:41;;;;;;;15.57;8.68;;;;;;;;;;5074063;28;20033;-68
2023/06/17 06:18:06;;;;;;;18.75;9.88;;;;;;;;;;5074061;28;20106;-68
2023/06/17 06:20:32;;;;;;;20.45;9.68;;;;;;;;;;5076418;28;20020;-67
2023/06/17 06:22:58;;;;;;;14.77;8.10;;;;;;;;;;5073948;28;20040;-67
2023/06/17 06:25:23;;;;;;;18.25;8.77;;;;;;;;;;5073871;28;20020;-67
2023/06/17 06:27:50;;;;;;;19.00;9.10;;;;;;;;;;5073888;28;20056;-67
2023/06/17 06:30:15;;;;;;;15.82;8.93;;;;;;;;;;5074129;28;20025;-67
2023/06/17 06:32:41;;;;;;;20.20;11.50;;;;;;;;;;5075833;28;20355;-68
2023/06/17 06:35:06;;;;;;;19.63;10.75;;;;;;;;;;5056141;28;20382;-68
2023/06/17 06:37:31;;;;;;;22.50;10.05;;;;;;;;;;5073370;28;20020;-68
2023/06/17 06:39:57;;;;;;;19.95;9.70;;;;;;;;;;5074366;28;20025;-67
2023/06/17 06:42:22;;;;;;;20.65;9.75;;;;;;;;;;5092850;28;20083;-68
2023/06/17 06:44:48;;;;;;;20.25;9.52;;;;;;;;;;5079351;28;20486;-68
2023/06/17 06:47:13;;;;;;;24.27;10.43;;;;;;;;;;5055775;28;20032;-68
2023/06/17 06:49:39;;;;;;;19.77;10.90;;;;;;;;;;5073528;28;20024;-68
2023/06/17 06:52:04;;;;;;;23.00;10.25;;;;;;;;;;5073206;28;20031;-68
2023/06/17 06:54:31;;;;;;;21.08;9.52;;;;;;;;;;5075728;28;20044;-68
2023/06/17 06:56:56;;;;;;;20.90;9.98;;;;;;;;;;5073058;28;20022;-67
2023/06/17 06:59:22;;;;;;;18.98;9.35;;;;;;;;;;5073798;28;20037;-67
2023/06/17 07:01:47;;;;;;;17.70;9.93;;;;;;;;;;5073061;28;20434;-67
2023/06/17 07:04:12;;;;;;;16.17;8.65;;;;;;;;;;5073105;28;20024;-67
2023/06/17 07:06:38;;;;;;;20.92;8.88;;;;;;;;;;5055348;28;20028;-68
2023/06/17 07:09:03;;;;;;;18.02;8.68;;;;;;;;;;5087905;28;20031;-68
2023/06/17 07:11:28;;;;;;;13.88;7.90;;;;;;;;;;5078704;28;20029;-68
2023/06/17 07:13:53;;;;;;;17.95;9.20;;;;;;;;;;5055020;28;20466;-68
2023/06/17 07:16:19;;;;;;;19.10;9.30;;;;;;;;;;5073126;28;20030;-69
2023/06/17 07:18:44;;;;;;;16.50;8.07;;;;;;;;;;5073036;28;20030;-69
2023/06/17 07:21:10;;;;;;;16.10;9.25;;;;;;;;;;5075595;28;20396;-69
2023/06/17 07:23:36;;;;;;;14.68;8.13;;;;;;;;;;5072892;28;20028;-68
2023/06/17 07:26:01;;;;;;;17.48;9.07;;;;;;;;;;5054332;28;20024;-69
2023/06/17 07:28:28;;;;;;;17.05;9.00;;;;;;;;;;5073647;28;20024;-68
2023/06/17 07:30:53;;;;;;;15.68;8.82;;;;;;;;;;5055918;28;20031;-69
2023/06/17 07:33:19;;;;;;;19.80;9.70;;;;;;;;;;5072811;28;20025;-69
2023/06/17 07:35:45;;;;;;;16.75;9.13;;;;;;;;;;5092727;28;20032;-69
2023/06/17 07:38:10;;;;;;;15.30;8.70;;;;;;;;;;5093614;28;20161;-69
2023/06/17 07:40:37;;;;;;;15.80;8.77;;;;;;;;;;5075026;28;20020;-69
2023/06/17 07:43:02;;;;;;;14.45;8.68;;;;;;;;;;5092803;28;20095;-69
2023/06/17 07:45:27;;;;;;;17.10;9.13;;;;;;;;;;5072920;28;20125;-69
2023/06/17 07:47:53;;;;;;;17.15;8.27;;;;;;;;;;5071503;28;20016;-69
2023/06/17 07:50:18;;;;;;;14.48;8.25;;;;;;;;;;5072626;28;20032;-69
2023/06/17 07:52:43;;;;;;;18.05;8.60;;;;;;;;;;5078297;28;20025;-68
2023/06/17 07:55:09;;;;;;;16.35;9.13;;;;;;;;;;5085930;28;20027;-66
2023/06/17 07:57:34;;;;;;;19.63;9.95;;;;;;;;;;5092560;28;20028;-67
2023/06/17 08:00:00;;;;;;;17.65;9.45;;;;;;;;;;5074088;28;20016;-68
2023/06/17 08:02:25;;;;;;;12.43;8.63;;;;;;;;;;5074425;28;20414;-68
2023/06/17 08:04:51;;;;;;;19.42;9.20;;;;;;;;;;5092812;28;20069;-67
2023/06/17 08:07:17;;;;;;;15.95;9.43;;;;;;;;;;5092577;28;20099;-69
2023/06/17 08:09:42;;;;;;;16.38;8.57;;;;;;;;;;5090887;28;20481;-67
2023/06/17 08:12:08;;;;;;;13.60;7.55;;;;;;;;;;5092586;28;20427;-68
2023/06/17 08:14:33;;;;;;;10.40;6.95;;;;;;;;;;5073872;28;20401;-67
2023/06/17 08:16:58;;;;;;;12.38;5.82;;;;;;;;;;5092667;28;20032;-67
2023/06/17 08:19:24;;;;;;;11.63;7.32;;;;;;;;;;5093119;28;20016;-67
2023/06/17 08:21:50;;;;;;;8.70;5.68;;;;;;;;;;5092564;28;20517;-67
2023/06/17 08:24:22;;;;;;;12.82;6.13;;;;;;;;;;5074490;28;20110;-68
2023/06/17 08:26:48;;;;;;;10.35;6.47;;;;;;;;;;5074596;28;20024;-67
2023/06/17 08:29:14;;;;;;;11.00;6.20;;;;;;;;;;5074989;28;20027;-67
2023/06/17 08:31:43;;;;;;;10.75;6.18;;;;;;;;;;5072080;28;20390;-67
2023/06/17 08:34:09;;;;;;;8.23;5.70;;;;;;;;;;5054399;28;20024;-67
2023/06/17 08:36:34;;;;;;;11.20;7.22;;;;;;;;;;5072598;28;20036;-68
2023/06/17 08:39:00;;;;;;;11.30;7.38;;;;;;;;;;5075839;28;20020;-67
2023/06/17 08:41:26;;;;;;;10.52;6.82;;;;;;;;;;5079383;28;20028;-67
2023/06/17 08:43:55;;;;;;;9.57;6.85;;;;;;;;;;5078324;28;20055;-67
2023/06/17 08:46:21;;;;;;;9.60;7.45;;;;;;;;;;5085635;28;20388;-67
2023/06/17 08:48:48;;;;;;;9.00;5.78;;;;;;;;;;5074372;28;20024;-66
2023/06/17 08:51:14;;;;;;;10.25;6.60;;;;;;;;;;5093918;28;20397;-67
2023/06/17 08:53:40;;;;;;;7.95;5.60;;;;;;;;;;5073986;28;20113;-67
2023/06/17 08:56:05;;;;;;;9.73;6.43;;;;;;;;;;5085229;28;20085;-67
2023/06/17 08:58:31;;;;;;;8.75;5.80;;;;;;;;;;5074553;28;20115;-67
2023/06/17 09:00:57;;;;;;;10.15;6.03;;;;;;;;;;5078685;28;20108;-67
2023/06/17 09:03:24;;;;;;;8.88;5.47;;;;;;;;;;5094234;28;20024;-67
2023/06/17 09:05:52;;;;;;;10.02;6.50;;;;;;;;;;5095200;28;20024;-67
2023/06/17 09:08:18;;;;;;;11.75;6.55;;;;;;;;;;5095877;28;20016;-68
2023/06/17 09:10:44;;;;;;;9.48;6.10;;;;;;;;;;5057392;28;20035;-67
2023/06/17 09:13:10;;;;;;;7.95;5.40;;;;;;;;;;5075221;28;20477;-67
2023/06/17 09:15:40;;;;;;;7.63;4.97;;;;;;;;;;5075247;28;20039;-66
2023/06/17 09:18:05;;;;;;;9.48;5.78;;;;;;;;;;5075180;28;20024;-67
2023/06/17 09:20:34;;;;;;;7.38;5.18;;;;;;;;;;5075133;28;20021;-67
2023/06/17 09:22:59;;;;;;;8.63;5.20;;;;;;;;;;5074839;28;20482;-67
2023/06/17 09:25:25;;;;;;;9.40;6.10;;;;;;;;;;5056891;28;20034;-67
2023/06/17 09:27:52;;;;;;;8.90;6.03;;;;;;;;;;5091940;28;20028;-67
2023/06/17 09:30:20;;;;;;;7.93;5.90;;;;;;;;;;5094748;28;20024;-66
2023/06/17 09:32:46;;;;;;;10.98;6.07;;;;;;;;;;5080294;28;20539;-67
2023/06/17 09:35:16;;;;;;;10.32;6.28;;;;;;;;;;5074468;28;20024;-67
2023/06/17 09:37:53;;;;;;;8.80;5.55;;;;;;;;;;5084196;28;20028;-66
2023/06/17 09:40:19;;;;;;;9.00;6.05;;;;;;;;;;5073995;28;20039;-66
2023/06/17 09:42:46;;;;;;;8.32;5.68;;;;;;;;;;5074853;28;20024;-66
2023/06/17 09:45:18;;;;;;;10.55;6.43;;;;;;;;;;5056385;28;20016;-66
2023/06/17 09:47:50;;;;;;;8.95;5.65;;;;;;;;;;5074743;28;20031;-66
2023/06/17 09:50:15;;;;;;;8.00;4.97;;;;;;;;;;5083750;28;20036;-66
2023/06/17 09:52:41;;;;;;;11.63;5.60;;;;;;;;;;5075335;28;20125;-66
2023/06/17 09:55:06;;;;;;;5.35;4.57;;;;;;;;;;5075659;28;20094;-66
2023/06/17 09:57:32;;;;;;;8.27;5.13;;;;;;;;;;5074137;28;20020;-67
2023/06/17 10:00:00;;;;;;;7.60;5.45;;;;;;;;;;5056481;28;20024;-67
2023/06/17 10:02:27;;;;;;;8.63;5.63;;;;;;;;;;5073806;28;20020;-67
2023/06/17 10:04:53;;;;;;;9.32;5.60;;;;;;;;;;5082967;28;20380;-67
2023/06/17 10:07:20;;;;;;;9.63;5.65;;;;;;;;;;5094537;28;20035;-67
2023/06/17 10:09:45;;;;;;;8.48;5.32;;;;;;;;;;5074401;28;20026;-67
2023/06/17 10:12:11;;;;;;;9.73;5.82;;;;;;;;;;5073818;28;20465;-66
2023/06/17 10:14:37;;;;;;;6.10;4.95;;;;;;;;;;5055695;28;20032;-67
2023/06/17 10:17:05;;;;;;;7.65;5.07;;;;;;;;;;5069690;28;20107;-67
2023/06/17 10:19:32;;;;;;;9.23;5.40;;;;;;;;;;5072381;28;20028;-67
2023/06/17 10:21:59;;;;;;;7.57;5.43;;;;;;;;;;5065823;28;20055;-66
2023/06/17 10:24:25;;;;;;;6.68;5.28;;;;;;;;;;5093681;28;20508;-67
2023/06/17 10:26:51;;;;;;;7.63;5.32;;;;;;;;;;5086837;28;20107;-66
2023/06/17 10:29:17;;;;;;;7.70;5.40;;;;;;;;;;5055721;28;20067;-67
2023/06/17 10:31:45;;;;;;;7.07;4.90;;;;;;;;;;5057992;28;20047;-67
2023/06/17 10:34:15;;;;;;;9.25;6.03;;;;;;;;;;5093990;28;20397;-66
2023/06/17 10:36:40;;;;;;;9.40;5.35;;;;;;;;;;5093573;28;20110;-66
2023/06/17 10:39:09;;;;;;;7.30;5.40;;;;;;;;;;5079238;28;20103;-67
2023/06/17 10:41:40;;;;;;;7.88;5.03;;;;;;;;;;5073101;28;20108;-67
2023/06/17 10:44:27;;;;;;;9.15;6.13;;;;;;;;;;5076004;28;20035;-66
2023/06/17 10:46:53;;;;;;;6.53;5.13;;;;;;;;;;5073372;28;20028;-66
2023/06/17 10:49:19;;;;;;;6.05;4.65;;;;;;;;;;5073255;28;20081;-67
2023/06/17 10:51:54;;;;;;;10.23;6.20;;;;;;;;;;5073183;28;20051;-66
2023/06/17 10:54:35;;;;;;;7.75;4.78;;;;;;;;;;5071504;28;20054;-66
2023/06/17 10:57:01;;;;;;;6.55;4.45;;;;;;;;;;5072797;28;20020;-66
2023/06/17 10:59:28;;;;;;;8.60;5.00;;;;;;;;;;5072921;28;20020;-66
2023/06/17 11:02:06;;;;;;;6.50;4.97;;;;;;;;;;5072734;28;20025;-66
2023/06/17 11:04:32;;;;;;;7.22;4.50;;;;;;;;;;5073288;28;20028;-66
2023/06/17 11:06:59;;;;;;;6.40;4.78;;;;;;;;;;5072968;28;20028;-66
2023/06/17 11:09:25;;;;;;;6.90;4.75;;;;;;;;;;5073270;28;20031;-66
2023/06/17 11:11:51;;;;;;;9.55;4.90;;;;;;;;;;5073095;28;20023;-66
2023/06/17 11:14:18;;;;;;;6.18;4.85;;;;;;;;;;5055968;28;20377;-66
2023/06/17 11:16:43;;;;;;;13.73;6.53;;;;;;;;;;5073085;28;20048;-66
2023/06/17 11:19:08;;;;;;;12.07;8.05;;;;;;;;;;5073055;28;20078;-66
2023/06/17 11:21:34;;;;;;;15.05;8.45;;;;;;;;;;5072940;28;20035;-66
2023/06/17 11:23:59;;;;;;;12.35;8.23;;;;;;;;;;5073074;28;20035;-66
2023/06/17 11:26:26;;;;;;;16.45;8.55;;;;;;;;;;5072964;28;20024;-66
2023/06/17 11:28:51;;;;;;;14.82;8.27;;;;;;;;;;5073640;28;20024;-66
2023/06/17 11:31:16;;;;;;;17.90;9.68;;;;;;;;;;5072929;28;20024;-66
2023/06/17 11:33:43;;;;;;;16.00;9.13;;;;;;;;;;5055407;28;20020;-66
2023/06/17 11:36:13;;;;;;;19.27;9.90;;;;;;;;;;5073044;28;20086;-66
2023/06/17 11:38:39;;;;;;;17.88;9.30;;;;;;;;;;5073313;28;20029;-66
2023/06/17 11:41:04;;;;;;;18.17;10.20;;;;;;;;;;5072802;28;20020;-66
2023/06/17 11:43:30;;;;;;;19.00;10.02;;;;;;;;;;5073051;28;20025;-68
2023/06/17 11:45:58;;;;;;;19.08;9.68;;;;;;;;;;5072841;28;20479;-67
2023/06/17 11:48:29;;;;;;;17.90;10.02;;;;;;;;;;5073126;28;20027;-66
2023/06/17 11:50:58;;;;;;;16.85;9.70;;;;;;;;;;5054933;28;20039;-66
2023/06/17 11:53:37;;;;;;;19.15;10.48;;;;;;;;;;5072606;28;20074;-67
2023/06/17 11:56:07;;;;;;;16.98;10.32;;;;;;;;;;5072692;28;20036;-67
2023/06/17 11:58:34;;;;;;;18.17;9.70;;;;;;;;;;5072707;28;20027;-67
2023/06/17 12:01:03;;;;;;;17.70;10.27;;;;;;;;;;5073452;28;20347;-66
2023/06/17 12:03:28;;;;;;;15.65;9.25;;;;;;;;;;5072607;28;20098;-66
2023/06/17 12:05:54;;;;;;;20.30;9.82;;;;;;;;;;5072901;28;20482;-68
2023/06/17 12:08:19;;;;;;;23.10;9.80;;;;;;;;;;5054735;28;20103;-67
2023/06/17 12:10:44;;;;;;;20.33;9.90;;;;;;;;;;5073147;28;20054;-68
2023/06/17 12:13:13;;;;;;;22.08;10.48;;;;;;;;;;5074644;28;20027;-67
2023/06/17 12:15:38;;;;;;;18.20;10.18;;;;;;;;;;5058579;28;20035;-68
2023/06/17 12:18:11;;;;;;;25.10;10.60;;;;;;;;;;5076378;28;20024;-68
2023/06/17 12:20:37;;;;;;;21.63;12.10;;;;;;;;;;5076457;28;20363;-67
2023/06/17 12:23:03;;;;;;;23.55;12.13;;;;;;;;;;5076108;28;20080;-68
2023/06/17 12:25:33;;;;;;;28.63;13.70;;;;;;;;;;5076822;28;20186;-68
2023/06/17 12:27:58;;;;;;;28.10;12.80;;;;;;;;;;5076145;28;20025;-68
2023/06/17 12:30:23;;;;;;;25.10;13.05;;;;;;;;;;5058322;28;20074;-68
2023/06/17 12:32:50;;;;;;;26.08;11.93;;;;;;;;;;5076204;28;20020;-68
2023/06/17 12:35:16;;;;;;;23.30;11.15;;;;;;;;;;5076293;28;20534;-68
2023/06/17 12:37:42;;;;;;;26.15;12.60;;;;;;;;;;5076230;28;20033;-68
2023/06/17 12:40:08;;;;;;;25.65;12.93;;;;;;;;;;5076012;28;20146;-68
2023/06/17 12:42:34;;;;;;;22.05;11.57;;;;;;;;;;5076305;28;20021;-68
2023/06/17 12:44:59;;;;;;;20.40;10.52;;;;;;;;;;5075846;28;20035;-69
2023/06/17 12:47:25;;;;;;;20.05;11.35;;;;;;;;;;5076294;28;20027;-67
2023/06/17 12:49:50;;;;;;;20.98;11.88;;;;;;;;;;5075772;28;20024;-68
2023/06/17 12:52:16;;;;;;;22.58;11.02;;;;;;;;;;5075526;28;20035;-68
2023/06/17 12:54:44;;;;;;;20.05;10.30;;;;;;;;;;5057806;28;20016;-69
2023/06/17 12:57:10;;;;;;;21.05;11.13;;;;;;;;;;5075729;28;20477;-68
2023/06/17 12:59:35;;;;;;;20.70;11.55;;;;;;;;;;5075553;28;20074;-69
2023/06/17 13:02:01;;;;;;;18.75;10.15;;;;;;;;;;5075659;28;20016;-69
2023/06/17 13:04:26;;;;;;;18.35;11.27;;;;;;;;;;5075624;28;20474;-68
2023/06/17 13:06:52;;;;;;;20.23;11.23;;;;;;;;;;5075421;28;20039;-68
2023/06/17 13:09:18;;;;;;;19.95;10.00;;;;;;;;;;5057703;28;20108;-68
2023/06/17 13:11:43;;;;;;;22.33;11.48;;;;;;;;;;5057843;28;20066;-69
2023/06/17 13:14:09;;;;;;;18.23;10.27;;;;;;;;;;5075807;28;20036;-68
2023/06/17 13:16:35;;;;;;;20.55;10.98;;;;;;;;;;5076073;28;20056;-69
2023/06/17 13:19:00;;;;;;;19.58;10.50;;;;;;;;;;5057445;28;20036;-69
2023/06/17 13:21:26;;;;;;;22.05;10.82;;;;;;;;;;5075152;28;20032;-69
2023/06/17 13:23:51;;;;;;;16.60;9.40;;;;;;;;;;5074006;28;20042;-68
2023/06/17 13:26:22;;;;;;;21.52;10.40;;;;;;;;;;5075109;28;20017;-69
2023/06/17 13:28:47;;;;;;;18.23;10.32;;;;;;;;;;5075624;28;20020;-69
2023/06/17 13:31:13;;;;;;;17.38;11.18;;;;;;;;;;5075122;28;20027;-69
2023/06/17 13:33:38;;;;;;;17.52;9.93;;;;;;;;;;5057248;28;20024;-69
2023/06/17 13:36:03;;;;;;;20.40;10.50;;;;;;;;;;5057092;28;20027;-70
2023/06/17 13:38:29;;;;;;;19.42;12.20;;;;;;;;;;5056995;28;20371;-70
2023/06/17 13:40:54;;;;;;;12.68;8.30;;;;;;;;;;5056971;28;20044;-69
2023/06/17 13:43:19;;;;;;;16.38;9.80;;;;;;;;;;5074656;28;20048;-69
2023/06/17 13:45:45;;;;;;;13.45;7.50;;;;;;;;;;5074715;28;20048;-69
2023/06/17 13:48:10;;;;;;;14.68;9.90;;;;;;;;;;5074662;28;20389;-69
2023/06/17 13:50:35;;;;;;;13.88;8.82;;;;;;;;;;5074610;28;20485;-69
2023/06/17 13:53:02;;;;;;;16.92;9.30;;;;;;;;;;5056616;28;20024;-69
2023/06/17 13:55:31;;;;;;;16.60;9.43;;;;;;;;;;5056737;28;20025;-69
2023/06/17 13:57:56;;;;;;;13.48;9.73;;;;;;;;;;5056530;28;20513;-71
2023/06/17 14:00:21;;;;;;;16.52;9.65;;;;;;;;;;5074653;28;20060;-71
2023/06/17 14:02:47;;;;;;;14.02;9.07;;;;;;;;;;5056700;28;20043;-71
2023/06/17 14:05:12;;;;;;;13.93;8.63;;;;;;;;;;5055052;28;20482;-71
2023/06/17 14:07:37;;;;;;;15.48;10.02;;;;;;;;;;5077318;28;20024;-71
2023/06/17 14:10:03;;;;;;;13.15;9.27;;;;;;;;;;5081404;28;20398;-70
2023/06/17 14:12:28;;;;;;;13.93;9.95;;;;;;;;;;5081994;28;20078;-70
2023/06/17 14:14:53;;;;;;;14.80;9.35;;;;;;;;;;5093040;28;20020;-70
2023/06/17 14:17:19;;;;;;;16.10;8.88;;;;;;;;;;5094223;28;20028;-71
2023/06/17 14:19:44;;;;;;;15.32;9.88;;;;;;;;;;5071942;28;20032;-70
2023/06/17 14:22:10;;;;;;;16.80;9.38;;;;;;;;;;5073765;28;20073;-70
2023/06/17 14:24:36;;;;;;;12.63;8.13;;;;;;;;;;5074008;28;20111;-70